This is the latest recevied weather packets stored in our database for station/object VE9LJW. If no packets are shown the sender has not sent any weather packets the latest 1 day(s).
| Time | Temp. | Humidity | Pressure | Rain* | Wind** | Luminosity | Snow |
|---|---|---|---|---|---|---|---|
| 1778085613 | 15.56° C | 92% | 1008.1 hPa | 0 mm | - | 109 W/m² | - |
| 1778083490 | 15° C | 92% | 1008.5 hPa | 0 mm | - | 157 W/m² | - |
| 1778083187 | 15° C | 92% | 1008.6 hPa | 0 mm | - | 179 W/m² | - |
| 1778080258 | 16.67° C | 87% | 1009 hPa | 0 mm | - | 181 W/m² | - |
| 1778079955 | 16.67° C | 87% | 1008.8 hPa | 0 mm | - | 228 W/m² | - |
| 1778079046 | 16.11° C | 86% | 1008.9 hPa | 0 mm | - | 421 W/m² | - |
| 1778077533 | 16.11° C | 87% | 1008.7 hPa | 0 mm | - | 464 W/m² | - |
| 1778076627 | 16.67° C | 88% | 1008.8 hPa | 0 mm | - | 369 W/m² | - |
| 1778076324 | 16.11° C | 90% | 1008.7 hPa | 0 mm | - | 417 W/m² | - |
| 1778075718 | 15.56° C | 90% | 1008.9 hPa | 0 mm | - | 495 W/m² | - |
| 1778075414 | 15.56° C | 92% | 1009.1 hPa | 0 mm | - | 357 W/m² | - |
| 1778073595 | 14.44° C | 96% | 1008.9 hPa | 0 mm | - | 254 W/m² | - |
| 1778073292 | 14.44° C | 97% | 1009.1 hPa | 0 mm | - | 191 W/m² | - |
| 1778072685 | 14.44° C | 97% | 1008.7 hPa | 0 mm | - | 204 W/m² | - |
| 1778072383 | 14.44° C | 97% | 1009.1 hPa | 0 mm | - | 184 W/m² | - |
| 1778072081 | 13.89° C | 98% | 1009.3 hPa | 0 mm | - | 158 W/m² | - |
| 1778071779 | 13.89° C | 99% | 1009.2 hPa | 0 mm | - | 172 W/m² | - |
| 1778071476 | 13.89° C | 99% | 1009.1 hPa | 0 mm | - | 137 W/m² | - |
| 1778071174 | 13.89° C | 99% | 1009 hPa | 0 mm | - | 170 W/m² | - |
| 1778070569 | 13.33° C | 99% | 1009.2 hPa | 0 mm | - | 100 W/m² | - |
| 1778069055 | 13.33° C | 99% | 1009.5 hPa | 0.51 mm | - | 38 W/m² | - |
| 1778064213 | 12.78° C | 99% | 1008.8 hPa | 0 mm | - | 48 W/m² | - |
| 1778063608 | 12.78° C | 99% | 1009.2 hPa | 0 mm | - | 54 W/m² | - |
| 1778063305 | 12.22° C | 99% | 1009.1 hPa | 0 mm | - | 49 W/m² | - |
| 1778063003 | 12.22° C | 99% | 1008.8 hPa | 0 mm | - | 44 W/m² | - |
* Rain latest hour (hover to see other rain measurements)
** Current wind speed in m/s (hover to see current wind gust speed)